sensor_id;sensor_type;location;lat;lon;timestamp;P1;durP1;ratioP1;P2;durP2;ratioP2
18897;SDS011;9581;49.484;8.556;2023-05-27T00:01:49;0.10;;;0.10;;
18897;SDS011;9581;49.484;8.556;2023-05-27T00:04:16;0.10;;;0.10;;
18897;SDS011;9581;49.484;8.556;2023-05-27T00:06:43;0.10;;;0.10;;
18897;SDS011;9581;49.484;8.556;2023-05-27T00:09:11;0.20;;;0.20;;
18897;SDS011;9581;49.484;8.556;2023-05-27T00:11:39;0.20;;;0.20;;
18897;SDS011;9581;49.484;8.556;2023-05-27T00:14:05;0.20;;;0.20;;
18897;SDS011;9581;49.484;8.556;2023-05-27T00:16:32;0.15;;;0.15;;
18897;SDS011;9581;49.484;8.556;2023-05-27T00:19:01;0.10;;;0.10;;
18897;SDS011;9581;49.484;8.556;2023-05-27T00:21:28;0.10;;;0.10;;
18897;SDS011;9581;49.484;8.556;2023-05-27T00:23:55;0.20;;;0.20;;
18897;SDS011;9581;49.484;8.556;2023-05-27T00:26:24;0.10;;;0.10;;
18897;SDS011;9581;49.484;8.556;2023-05-27T00:28:52;0.10;;;0.10;;
18897;SDS011;9581;49.484;8.556;2023-05-27T00:31:18;0.10;;;0.10;;
18897;SDS011;9581;49.484;8.556;2023-05-27T00:33:45;0.20;;;0.20;;
18897;SDS011;9581;49.484;8.556;2023-05-27T00:36:12;0.10;;;0.10;;
18897;SDS011;9581;49.484;8.556;2023-05-27T00:38:39;0.20;;;0.20;;
18897;SDS011;9581;49.484;8.556;2023-05-27T00:41:06;0.10;;;0.10;;
18897;SDS011;9581;49.484;8.556;2023-05-27T00:43:37;0.17;;;0.17;;
18897;SDS011;9581;49.484;8.556;2023-05-27T00:46:04;0.20;;;0.20;;
18897;SDS011;9581;49.484;8.556;2023-05-27T00:48:31;0.20;;;0.20;;
18897;SDS011;9581;49.484;8.556;2023-05-27T00:50:58;0.20;;;0.20;;
18897;SDS011;9581;49.484;8.556;2023-05-27T00:53:26;0.20;;;0.20;;
18897;SDS011;9581;49.484;8.556;2023-05-27T00:55:53;0.20;;;0.20;;
18897;SDS011;9581;49.484;8.556;2023-05-27T00:58:23;0.20;;;0.20;;
18897;SDS011;9581;49.484;8.556;2023-05-27T01:00:51;0.20;;;0.20;;
18897;SDS011;9581;49.484;8.556;2023-05-27T01:03:18;0.20;;;0.20;;
18897;SDS011;9581;49.484;8.556;2023-05-27T01:05:45;0.20;;;0.20;;
18897;SDS011;9581;49.484;8.556;2023-05-27T01:08:19;0.20;;;0.20;;
18897;SDS011;9581;49.484;8.556;2023-05-27T01:10:54;0.15;;;0.15;;
18897;SDS011;9581;49.484;8.556;2023-05-27T01:13:24;0.10;;;0.10;;
18897;SDS011;9581;49.484;8.556;2023-05-27T01:16:01;0.20;;;0.20;;
18897;SDS011;9581;49.484;8.556;2023-05-27T01:18:30;0.20;;;0.20;;
18897;SDS011;9581;49.484;8.556;2023-05-27T01:20:59;0.20;;;0.20;;
18897;SDS011;9581;49.484;8.556;2023-05-27T01:23:30;0.10;;;0.10;;
18897;SDS011;9581;49.484;8.556;2023-05-27T01:25:58;0.20;;;0.20;;
18897;SDS011;9581;49.484;8.556;2023-05-27T01:28:24;0.10;;;0.10;;
18897;SDS011;9581;49.484;8.556;2023-05-27T01:30:51;0.20;;;0.20;;
18897;SDS011;9581;49.484;8.556;2023-05-27T01:33:24;0.20;;;0.20;;
18897;SDS011;9581;49.484;8.556;2023-05-27T01:35:56;0.20;;;0.20;;
18897;SDS011;9581;49.484;8.556;2023-05-27T01:38:27;0.20;;;0.20;;
18897;SDS011;9581;49.484;8.556;2023-05-27T01:40:58;0.20;;;0.20;;
18897;SDS011;9581;49.484;8.556;2023-05-27T01:43:26;0.15;;;0.15;;
18897;SDS011;9581;49.484;8.556;2023-05-27T01:45:53;0.20;;;0.20;;
18897;SDS011;9581;49.484;8.556;2023-05-27T01:48:20;0.20;;;0.20;;
18897;SDS011;9581;49.484;8.556;2023-05-27T01:50:47;0.10;;;0.10;;
18897;SDS011;9581;49.484;8.556;2023-05-27T01:53:14;0.15;;;0.15;;
18897;SDS011;9581;49.484;8.556;2023-05-27T01:55:42;0.13;;;0.13;;
18897;SDS011;9581;49.484;8.556;2023-05-27T01:58:09;0.13;;;0.13;;
18897;SDS011;9581;49.484;8.556;2023-05-27T02:00:36;0.10;;;0.10;;
18897;SDS011;9581;49.484;8.556;2023-05-27T02:03:02;0.20;;;0.20;;
18897;SDS011;9581;49.484;8.556;2023-05-27T02:05:29;0.20;;;0.20;;
18897;SDS011;9581;49.484;8.556;2023-05-27T02:07:56;0.20;;;0.20;;
18897;SDS011;9581;49.484;8.556;2023-05-27T02:10:23;0.20;;;0.20;;
18897;SDS011;9581;49.484;8.556;2023-05-27T02:12:51;0.20;;;0.20;;
18897;SDS011;9581;49.484;8.556;2023-05-27T02:15:18;0.20;;;0.20;;
18897;SDS011;9581;49.484;8.556;2023-05-27T02:17:46;0.20;;;0.20;;
18897;SDS011;9581;49.484;8.556;2023-05-27T02:20:16;0.20;;;0.20;;
18897;SDS011;9581;49.484;8.556;2023-05-27T02:22:42;0.20;;;0.20;;
18897;SDS011;9581;49.484;8.556;2023-05-27T02:25:09;0.20;;;0.20;;
18897;SDS011;9581;49.484;8.556;2023-05-27T02:27:36;0.20;;;0.20;;
18897;SDS011;9581;49.484;8.556;2023-05-27T02:30:05;0.20;;;0.20;;
18897;SDS011;9581;49.484;8.556;2023-05-27T02:32:32;0.20;;;0.20;;
18897;SDS011;9581;49.484;8.556;2023-05-27T02:34:59;0.20;;;0.20;;
18897;SDS011;9581;49.484;8.556;2023-05-27T02:37:26;0.20;;;0.20;;
18897;SDS011;9581;49.484;8.556;2023-05-27T02:39:53;0.20;;;0.20;;
18897;SDS011;9581;49.484;8.556;2023-05-27T02:42:21;0.17;;;0.17;;
18897;SDS011;9581;49.484;8.556;2023-05-27T02:44:48;0.20;;;0.20;;
18897;SDS011;9581;49.484;8.556;2023-05-27T02:47:16;0.13;;;0.13;;
18897;SDS011;9581;49.484;8.556;2023-05-27T02:49:43;0.20;;;0.20;;
18897;SDS011;9581;49.484;8.556;2023-05-27T02:52:10;0.20;;;0.20;;
18897;SDS011;9581;49.484;8.556;2023-05-27T02:54:36;0.20;;;0.20;;
18897;SDS011;9581;49.484;8.556;2023-05-27T02:57:03;0.20;;;0.20;;
18897;SDS011;9581;49.484;8.556;2023-05-27T02:59:31;0.20;;;0.20;;
18897;SDS011;9581;49.484;8.556;2023-05-27T03:01:58;0.20;;;0.20;;
18897;SDS011;9581;49.484;8.556;2023-05-27T03:04:26;0.20;;;0.20;;
18897;SDS011;9581;49.484;8.556;2023-05-27T03:06:53;0.20;;;0.20;;
18897;SDS011;9581;49.484;8.556;2023-05-27T03:09:20;0.20;;;0.20;;
18897;SDS011;9581;49.484;8.556;2023-05-27T03:11:47;0.10;;;0.10;;
18897;SDS011;9581;49.484;8.556;2023-05-27T03:14:14;0.20;;;0.20;;
18897;SDS011;9581;49.484;8.556;2023-05-27T03:16:40;0.20;;;0.20;;
18897;SDS011;9581;49.484;8.556;2023-05-27T03:19:07;0.10;;;0.10;;
18897;SDS011;9581;49.484;8.556;2023-05-27T03:21:35;0.20;;;0.20;;
18897;SDS011;9581;49.484;8.556;2023-05-27T03:24:02;0.43;;;0.43;;
18897;SDS011;9581;49.484;8.556;2023-05-27T03:26:29;0.20;;;0.20;;
18897;SDS011;9581;49.484;8.556;2023-05-27T03:28:56;0.20;;;0.20;;
18897;SDS011;9581;49.484;8.556;2023-05-27T03:31:23;0.20;;;0.20;;
18897;SDS011;9581;49.484;8.556;2023-05-27T03:33:49;0.20;;;0.20;;
18897;SDS011;9581;49.484;8.556;2023-05-27T03:36:16;0.20;;;0.20;;
18897;SDS011;9581;49.484;8.556;2023-05-27T03:38:44;0.20;;;0.20;;
18897;SDS011;9581;49.484;8.556;2023-05-27T03:41:11;0.20;;;0.20;;
18897;SDS011;9581;49.484;8.556;2023-05-27T03:43:38;0.20;;;0.20;;
18897;SDS011;9581;49.484;8.556;2023-05-27T03:46:05;0.10;;;0.10;;
18897;SDS011;9581;49.484;8.556;2023-05-27T03:48:32;0.20;;;0.20;;
18897;SDS011;9581;49.484;8.556;2023-05-27T03:50:59;0.20;;;0.20;;
18897;SDS011;9581;49.484;8.556;2023-05-27T03:53:25;0.20;;;0.20;;
18897;SDS011;9581;49.484;8.556;2023-05-27T03:55:54;0.20;;;0.20;;
18897;SDS011;9581;49.484;8.556;2023-05-27T03:58:21;0.20;;;0.20;;
18897;SDS011;9581;49.484;8.556;2023-05-27T04:00:47;0.20;;;0.20;;
18897;SDS011;9581;49.484;8.556;2023-05-27T04:03:14;0.20;;;0.20;;
18897;SDS011;9581;49.484;8.556;2023-05-27T04:05:41;0.20;;;0.20;;
18897;SDS011;9581;49.484;8.556;2023-05-27T04:08:08;0.20;;;0.20;;
18897;SDS011;9581;49.484;8.556;2023-05-27T04:10:35;0.20;;;0.20;;
18897;SDS011;9581;49.484;8.556;2023-05-27T04:13:03;0.20;;;0.20;;
18897;SDS011;9581;49.484;8.556;2023-05-27T04:15:30;0.20;;;0.20;;
18897;SDS011;9581;49.484;8.556;2023-05-27T04:17:56;0.20;;;0.20;;
18897;SDS011;9581;49.484;8.556;2023-05-27T04:20:23;0.20;;;0.20;;
18897;SDS011;9581;49.484;8.556;2023-05-27T04:22:50;0.20;;;0.20;;
18897;SDS011;9581;49.484;8.556;2023-05-27T04:25:17;0.20;;;0.20;;
18897;SDS011;9581;49.484;8.556;2023-05-27T04:27:43;0.20;;;0.20;;
18897;SDS011;9581;49.484;8.556;2023-05-27T04:30:13;0.20;;;0.20;;
18897;SDS011;9581;49.484;8.556;2023-05-27T04:32:39;0.20;;;0.20;;
18897;SDS011;9581;49.484;8.556;2023-05-27T04:35:07;0.20;;;0.20;;
18897;SDS011;9581;49.484;8.556;2023-05-27T04:37:34;0.20;;;0.20;;
18897;SDS011;9581;49.484;8.556;2023-05-27T04:40:02;0.20;;;0.20;;
18897;SDS011;9581;49.484;8.556;2023-05-27T04:42:31;0.20;;;0.20;;
18897;SDS011;9581;49.484;8.556;2023-05-27T04:44:58;0.20;;;0.20;;
18897;SDS011;9581;49.484;8.556;2023-05-27T04:47:26;0.20;;;0.20;;
18897;SDS011;9581;49.484;8.556;2023-05-27T04:49:54;0.20;;;0.20;;
18897;SDS011;9581;49.484;8.556;2023-05-27T04:52:20;0.20;;;0.20;;
18897;SDS011;9581;49.484;8.556;2023-05-27T04:54:48;0.20;;;0.20;;
18897;SDS011;9581;49.484;8.556;2023-05-27T04:57:15;0.20;;;0.20;;
18897;SDS011;9581;49.484;8.556;2023-05-27T04:59:43;0.20;;;0.20;;
18897;SDS011;9581;49.484;8.556;2023-05-27T05:02:24;0.20;;;0.20;;
18897;SDS011;9581;49.484;8.556;2023-05-27T05:05:00;0.20;;;0.20;;
18897;SDS011;9581;49.484;8.556;2023-05-27T05:07:26;0.20;;;0.20;;
18897;SDS011;9581;49.484;8.556;2023-05-27T05:09:53;0.20;;;0.20;;
18897;SDS011;9581;49.484;8.556;2023-05-27T05:12:21;0.20;;;0.20;;
18897;SDS011;9581;49.484;8.556;2023-05-27T05:14:47;0.20;;;0.20;;
18897;SDS011;9581;49.484;8.556;2023-05-27T05:17:14;0.20;;;0.20;;
18897;SDS011;9581;49.484;8.556;2023-05-27T05:19:43;0.20;;;0.20;;
18897;SDS011;9581;49.484;8.556;2023-05-27T05:22:10;0.20;;;0.20;;
18897;SDS011;9581;49.484;8.556;2023-05-27T05:24:37;0.20;;;0.20;;
18897;SDS011;9581;49.484;8.556;2023-05-27T05:27:05;0.10;;;0.10;;
18897;SDS011;9581;49.484;8.556;2023-05-27T05:29:32;0.20;;;0.20;;
18897;SDS011;9581;49.484;8.556;2023-05-27T05:32:00;0.20;;;0.20;;
18897;SDS011;9581;49.484;8.556;2023-05-27T05:34:26;0.20;;;0.20;;
18897;SDS011;9581;49.484;8.556;2023-05-27T05:36:55;0.20;;;0.20;;
18897;SDS011;9581;49.484;8.556;2023-05-27T05:39:21;0.20;;;0.20;;
18897;SDS011;9581;49.484;8.556;2023-05-27T05:41:48;0.20;;;0.20;;
18897;SDS011;9581;49.484;8.556;2023-05-27T05:44:15;0.20;;;0.20;;
18897;SDS011;9581;49.484;8.556;2023-05-27T05:46:42;0.20;;;0.20;;
18897;SDS011;9581;49.484;8.556;2023-05-27T05:49:09;0.20;;;0.20;;
18897;SDS011;9581;49.484;8.556;2023-05-27T05:51:36;0.20;;;0.20;;
18897;SDS011;9581;49.484;8.556;2023-05-27T05:54:04;0.20;;;0.20;;
18897;SDS011;9581;49.484;8.556;2023-05-27T05:56:31;0.20;;;0.20;;
18897;SDS011;9581;49.484;8.556;2023-05-27T05:58:58;0.20;;;0.20;;
18897;SDS011;9581;49.484;8.556;2023-05-27T06:01:25;0.20;;;0.20;;
18897;SDS011;9581;49.484;8.556;2023-05-27T06:03:52;0.10;;;0.10;;
18897;SDS011;9581;49.484;8.556;2023-05-27T06:06:19;0.20;;;0.20;;
18897;SDS011;9581;49.484;8.556;2023-05-27T06:08:46;0.20;;;0.20;;
18897;SDS011;9581;49.484;8.556;2023-05-27T06:11:14;0.20;;;0.20;;
18897;SDS011;9581;49.484;8.556;2023-05-27T06:13:41;0.10;;;0.10;;
18897;SDS011;9581;49.484;8.556;2023-05-27T06:16:08;0.20;;;0.20;;
18897;SDS011;9581;49.484;8.556;2023-05-27T06:18:34;0.20;;;0.20;;
18897;SDS011;9581;49.484;8.556;2023-05-27T06:21:01;0.10;;;0.10;;
18897;SDS011;9581;49.484;8.556;2023-05-27T06:23:28;0.20;;;0.20;;
18897;SDS011;9581;49.484;8.556;2023-05-27T06:25:55;0.20;;;0.20;;
18897;SDS011;9581;49.484;8.556;2023-05-27T06:28:23;0.20;;;0.20;;
18897;SDS011;9581;49.484;8.556;2023-05-27T06:30:50;0.10;;;0.10;;
18897;SDS011;9581;49.484;8.556;2023-05-27T06:33:17;0.10;;;0.10;;
18897;SDS011;9581;49.484;8.556;2023-05-27T06:35:44;0.10;;;0.10;;
18897;SDS011;9581;49.484;8.556;2023-05-27T06:38:10;0.10;;;0.10;;
18897;SDS011;9581;49.484;8.556;2023-05-27T06:40:37;0.13;;;0.13;;
18897;SDS011;9581;49.484;8.556;2023-05-27T06:43:04;0.10;;;0.10;;
18897;SDS011;9581;49.484;8.556;2023-05-27T06:45:32;0.15;;;0.15;;
18897;SDS011;9581;49.484;8.556;2023-05-27T06:47:59;0.10;;;0.10;;
18897;SDS011;9581;49.484;8.556;2023-05-27T06:50:25;0.20;;;0.20;;
18897;SDS011;9581;49.484;8.556;2023-05-27T06:52:52;0.10;;;0.10;;
18897;SDS011;9581;49.484;8.556;2023-05-27T06:55:19;0.10;;;0.10;;
18897;SDS011;9581;49.484;8.556;2023-05-27T06:57:46;0.20;;;0.20;;
18897;SDS011;9581;49.484;8.556;2023-05-27T07:00:13;0.20;;;0.20;;
18897;SDS011;9581;49.484;8.556;2023-05-27T07:02:41;0.10;;;0.10;;
18897;SDS011;9581;49.484;8.556;2023-05-27T07:05:08;0.10;;;0.10;;
18897;SDS011;9581;49.484;8.556;2023-05-27T07:07:35;0.10;;;0.10;;
18897;SDS011;9581;49.484;8.556;2023-05-27T07:10:02;0.10;;;0.10;;
18897;SDS011;9581;49.484;8.556;2023-05-27T07:12:29;0.10;;;0.10;;
18897;SDS011;9581;49.484;8.556;2023-05-27T07:14:56;0.10;;;0.10;;
18897;SDS011;9581;49.484;8.556;2023-05-27T07:17:23;0.15;;;0.15;;
18897;SDS011;9581;49.484;8.556;2023-05-27T07:19:51;0.10;;;0.10;;
18897;SDS011;9581;49.484;8.556;2023-05-27T07:22:18;0.10;;;0.10;;
18897;SDS011;9581;49.484;8.556;2023-05-27T07:24:44;0.10;;;0.10;;
18897;SDS011;9581;49.484;8.556;2023-05-27T07:27:11;0.10;;;0.10;;
18897;SDS011;9581;49.484;8.556;2023-05-27T07:29:38;0.10;;;0.10;;
18897;SDS011;9581;49.484;8.556;2023-05-27T07:32:05;0.10;;;0.10;;
18897;SDS011;9581;49.484;8.556;2023-05-27T07:34:32;0.10;;;0.10;;
18897;SDS011;9581;49.484;8.556;2023-05-27T07:37:00;0.10;;;0.10;;
18897;SDS011;9581;49.484;8.556;2023-05-27T07:39:27;0.10;;;0.10;;
18897;SDS011;9581;49.484;8.556;2023-05-27T07:41:54;0.10;;;0.10;;
18897;SDS011;9581;49.484;8.556;2023-05-27T07:44:21;0.10;;;0.10;;
18897;SDS011;9581;49.484;8.556;2023-05-27T07:46:47;0.10;;;0.10;;
18897;SDS011;9581;49.484;8.556;2023-05-27T07:49:14;0.10;;;0.10;;
18897;SDS011;9581;49.484;8.556;2023-05-27T07:51:41;0.10;;;0.10;;
18897;SDS011;9581;49.484;8.556;2023-05-27T07:54:09;0.10;;;0.10;;
18897;SDS011;9581;49.484;8.556;2023-05-27T07:56:36;0.10;;;0.10;;
18897;SDS011;9581;49.484;8.556;2023-05-27T07:59:02;0.10;;;0.10;;
18897;SDS011;9581;49.484;8.556;2023-05-27T08:01:29;0.10;;;0.10;;
18897;SDS011;9581;49.484;8.556;2023-05-27T08:03:57;0.10;;;0.10;;
18897;SDS011;9581;49.484;8.556;2023-05-27T08:06:24;0.10;;;0.10;;
18897;SDS011;9581;49.484;8.556;2023-05-27T08:08:51;0.10;;;0.10;;
18897;SDS011;9581;49.484;8.556;2023-05-27T08:11:19;0.10;;;0.10;;
18897;SDS011;9581;49.484;8.556;2023-05-27T08:13:47;0.10;;;0.10;;
18897;SDS011;9581;49.484;8.556;2023-05-27T08:16:14;0.10;;;0.10;;
18897;SDS011;9581;49.484;8.556;2023-05-27T08:18:41;0.10;;;0.10;;
18897;SDS011;9581;49.484;8.556;2023-05-27T08:21:07;0.10;;;0.10;;
18897;SDS011;9581;49.484;8.556;2023-05-27T08:23:34;0.10;;;0.10;;
18897;SDS011;9581;49.484;8.556;2023-05-27T08:26:01;0.10;;;0.10;;
18897;SDS011;9581;49.484;8.556;2023-05-27T08:28:29;0.10;;;0.10;;
18897;SDS011;9581;49.484;8.556;2023-05-27T08:30:59;0.10;;;0.10;;
18897;SDS011;9581;49.484;8.556;2023-05-27T08:33:26;0.10;;;0.10;;
18897;SDS011;9581;49.484;8.556;2023-05-27T08:35:53;0.10;;;0.10;;
18897;SDS011;9581;49.484;8.556;2023-05-27T08:38:20;0.10;;;0.10;;
18897;SDS011;9581;49.484;8.556;2023-05-27T08:40:47;0.10;;;0.10;;
18897;SDS011;9581;49.484;8.556;2023-05-27T08:43:14;0.10;;;0.10;;
18897;SDS011;9581;49.484;8.556;2023-05-27T08:45:43;0.10;;;0.10;;
18897;SDS011;9581;49.484;8.556;2023-05-27T08:48:10;0.10;;;0.10;;
18897;SDS011;9581;49.484;8.556;2023-05-27T08:50:37;0.10;;;0.10;;
18897;SDS011;9581;49.484;8.556;2023-05-27T08:53:04;0.10;;;0.10;;
18897;SDS011;9581;49.484;8.556;2023-05-27T08:55:31;0.10;;;0.10;;
18897;SDS011;9581;49.484;8.556;2023-05-27T08:57:59;0.10;;;0.10;;
18897;SDS011;9581;49.484;8.556;2023-05-27T09:00:28;0.10;;;0.10;;
18897;SDS011;9581;49.484;8.556;2023-05-27T09:02:57;0.10;;;0.10;;
18897;SDS011;9581;49.484;8.556;2023-05-27T09:05:25;0.10;;;0.10;;
18897;SDS011;9581;49.484;8.556;2023-05-27T09:07:52;0.10;;;0.10;;
18897;SDS011;9581;49.484;8.556;2023-05-27T09:10:19;0.10;;;0.10;;
18897;SDS011;9581;49.484;8.556;2023-05-27T09:12:45;0.10;;;0.10;;
18897;SDS011;9581;49.484;8.556;2023-05-27T09:15:12;0.10;;;0.10;;
18897;SDS011;9581;49.484;8.556;2023-05-27T09:17:40;0.10;;;0.10;;
18897;SDS011;9581;49.484;8.556;2023-05-27T09:20:09;0.10;;;0.10;;
18897;SDS011;9581;49.484;8.556;2023-05-27T09:22:37;0.10;;;0.10;;
18897;SDS011;9581;49.484;8.556;2023-05-27T09:25:05;0.10;;;0.10;;
18897;SDS011;9581;49.484;8.556;2023-05-27T09:27:32;0.10;;;0.10;;
18897;SDS011;9581;49.484;8.556;2023-05-27T09:30:05;0.10;;;0.10;;
18897;SDS011;9581;49.484;8.556;2023-05-27T09:32:33;0.10;;;0.10;;
18897;SDS011;9581;49.484;8.556;2023-05-27T09:35:00;0.10;;;0.10;;
18897;SDS011;9581;49.484;8.556;2023-05-27T09:37:31;0.10;;;0.10;;
18897;SDS011;9581;49.484;8.556;2023-05-27T09:39:59;0.10;;;0.10;;
18897;SDS011;9581;49.484;8.556;2023-05-27T09:42:38;0.10;;;0.10;;
18897;SDS011;9581;49.484;8.556;2023-05-27T09:45:06;0.10;;;0.10;;
18897;SDS011;9581;49.484;8.556;2023-05-27T09:47:35;0.10;;;0.10;;
18897;SDS011;9581;49.484;8.556;2023-05-27T09:50:04;0.10;;;0.10;;
18897;SDS011;9581;49.484;8.556;2023-05-27T09:52:35;0.10;;;0.10;;
18897;SDS011;9581;49.484;8.556;2023-05-27T09:55:05;0.10;;;0.10;;
18897;SDS011;9581;49.484;8.556;2023-05-27T09:57:32;0.10;;;0.10;;
18897;SDS011;9581;49.484;8.556;2023-05-27T10:00:01;0.10;;;0.10;;
18897;SDS011;9581;49.484;8.556;2023-05-27T10:02:35;0.10;;;0.10;;
18897;SDS011;9581;49.484;8.556;2023-05-27T10:05:03;0.10;;;0.10;;
18897;SDS011;9581;49.484;8.556;2023-05-27T10:07:35;0.10;;;0.10;;
18897;SDS011;9581;49.484;8.556;2023-05-27T10:10:04;0.10;;;0.10;;
18897;SDS011;9581;49.484;8.556;2023-05-27T10:12:33;0.10;;;0.10;;
18897;SDS011;9581;49.484;8.556;2023-05-27T10:15:00;0.10;;;0.10;;
18897;SDS011;9581;49.484;8.556;2023-05-27T10:17:27;0.10;;;0.10;;
18897;SDS011;9581;49.484;8.556;2023-05-27T10:20:06;0.10;;;0.10;;
18897;SDS011;9581;49.484;8.556;2023-05-27T10:22:42;0.10;;;0.10;;
18897;SDS011;9581;49.484;8.556;2023-05-27T10:25:11;0.10;;;0.10;;
18897;SDS011;9581;49.484;8.556;2023-05-27T10:27:43;0.10;;;0.10;;
18897;SDS011;9581;49.484;8.556;2023-05-27T10:30:10;0.10;;;0.10;;
18897;SDS011;9581;49.484;8.556;2023-05-27T10:32:42;0.10;;;0.10;;
18897;SDS011;9581;49.484;8.556;2023-05-27T10:35:14;0.10;;;0.10;;
18897;SDS011;9581;49.484;8.556;2023-05-27T10:37:42;0.10;;;0.10;;
18897;SDS011;9581;49.484;8.556;2023-05-27T10:40:10;0.10;;;0.10;;
18897;SDS011;9581;49.484;8.556;2023-05-27T10:42:37;0.10;;;0.10;;
18897;SDS011;9581;49.484;8.556;2023-05-27T10:45:04;0.10;;;0.10;;
18897;SDS011;9581;49.484;8.556;2023-05-27T10:47:34;0.10;;;0.10;;
18897;SDS011;9581;49.484;8.556;2023-05-27T10:50:12;0.10;;;0.10;;
18897;SDS011;9581;49.484;8.556;2023-05-27T10:52:39;0.10;;;0.10;;
18897;SDS011;9581;49.484;8.556;2023-05-27T10:55:09;0.45;;;0.38;;
18897;SDS011;9581;49.484;8.556;2023-05-27T10:57:35;0.10;;;0.10;;
18897;SDS011;9581;49.484;8.556;2023-05-27T11:00:03;0.10;;;0.10;;
18897;SDS011;9581;49.484;8.556;2023-05-27T11:02:34;0.10;;;0.10;;
18897;SDS011;9581;49.484;8.556;2023-05-27T11:05:07;0.10;;;0.10;;
18897;SDS011;9581;49.484;8.556;2023-05-27T11:07:36;0.10;;;0.10;;
18897;SDS011;9581;49.484;8.556;2023-05-27T11:10:04;0.10;;;0.10;;
18897;SDS011;9581;49.484;8.556;2023-05-27T11:12:33;0.10;;;0.10;;
18897;SDS011;9581;49.484;8.556;2023-05-27T11:15:00;0.10;;;0.10;;
18897;SDS011;9581;49.484;8.556;2023-05-27T11:17:28;0.10;;;0.10;;
18897;SDS011;9581;49.484;8.556;2023-05-27T11:19:55;0.10;;;0.10;;
18897;SDS011;9581;49.484;8.556;2023-05-27T11:22:21;0.10;;;0.10;;
18897;SDS011;9581;49.484;8.556;2023-05-27T11:24:55;0.10;;;0.10;;
18897;SDS011;9581;49.484;8.556;2023-05-27T11:27:22;0.10;;;0.10;;
18897;SDS011;9581;49.484;8.556;2023-05-27T11:29:51;0.10;;;0.10;;
18897;SDS011;9581;49.484;8.556;2023-05-27T11:32:19;0.10;;;0.10;;
18897;SDS011;9581;49.484;8.556;2023-05-27T11:34:46;0.10;;;0.10;;
18897;SDS011;9581;49.484;8.556;2023-05-27T11:37:15;0.10;;;0.10;;
18897;SDS011;9581;49.484;8.556;2023-05-27T11:39:48;0.10;;;0.10;;
18897;SDS011;9581;49.484;8.556;2023-05-27T11:42:20;0.00;;;0.00;;
18897;SDS011;9581;49.484;8.556;2023-05-27T11:44:51;0.10;;;0.10;;
18897;SDS011;9581;49.484;8.556;2023-05-27T11:47:19;0.10;;;0.10;;
18897;SDS011;9581;49.484;8.556;2023-05-27T11:49:46;0.10;;;0.10;;
18897;SDS011;9581;49.484;8.556;2023-05-27T11:52:13;0.10;;;0.10;;
18897;SDS011;9581;49.484;8.556;2023-05-27T11:54:40;0.10;;;0.10;;
18897;SDS011;9581;49.484;8.556;2023-05-27T11:57:07;0.03;;;0.03;;
18897;SDS011;9581;49.484;8.556;2023-05-27T11:59:35;0.10;;;0.10;;
18897;SDS011;9581;49.484;8.556;2023-05-27T12:02:04;0.10;;;0.10;;
18897;SDS011;9581;49.484;8.556;2023-05-27T12:04:31;0.00;;;0.00;;
18897;SDS011;9581;49.484;8.556;2023-05-27T12:06:58;0.00;;;0.00;;
18897;SDS011;9581;49.484;8.556;2023-05-27T12:09:25;0.10;;;0.10;;
18897;SDS011;9581;49.484;8.556;2023-05-27T12:11:52;0.00;;;0.00;;
18897;SDS011;9581;49.484;8.556;2023-05-27T12:14:20;0.10;;;0.10;;
18897;SDS011;9581;49.484;8.556;2023-05-27T12:16:46;0.10;;;0.10;;
18897;SDS011;9581;49.484;8.556;2023-05-27T12:19:15;0.10;;;0.10;;
18897;SDS011;9581;49.484;8.556;2023-05-27T12:21:42;0.10;;;0.10;;
18897;SDS011;9581;49.484;8.556;2023-05-27T12:24:08;0.00;;;0.00;;
18897;SDS011;9581;49.484;8.556;2023-05-27T12:26:37;0.10;;;0.10;;
18897;SDS011;9581;49.484;8.556;2023-05-27T12:29:05;0.00;;;0.00;;
18897;SDS011;9581;49.484;8.556;2023-05-27T12:31:32;0.00;;;0.00;;
18897;SDS011;9581;49.484;8.556;2023-05-27T12:33:59;0.00;;;0.00;;
18897;SDS011;9581;49.484;8.556;2023-05-27T12:36:27;0.00;;;0.00;;
18897;SDS011;9581;49.484;8.556;2023-05-27T12:38:54;0.00;;;0.00;;
18897;SDS011;9581;49.484;8.556;2023-05-27T12:41:21;0.10;;;0.10;;
18897;SDS011;9581;49.484;8.556;2023-05-27T12:43:47;0.00;;;0.00;;
18897;SDS011;9581;49.484;8.556;2023-05-27T12:46:14;0.08;;;0.08;;
18897;SDS011;9581;49.484;8.556;2023-05-27T12:48:41;0.05;;;0.05;;
18897;SDS011;9581;49.484;8.556;2023-05-27T12:51:09;0.00;;;0.00;;
18897;SDS011;9581;49.484;8.556;2023-05-27T12:53:38;0.00;;;0.00;;
18897;SDS011;9581;49.484;8.556;2023-05-27T12:56:05;0.10;;;0.10;;
18897;SDS011;9581;49.484;8.556;2023-05-27T12:58:32;0.00;;;0.00;;
18897;SDS011;9581;49.484;8.556;2023-05-27T13:00:59;0.05;;;0.05;;
18897;SDS011;9581;49.484;8.556;2023-05-27T13:03:26;0.10;;;0.10;;
18897;SDS011;9581;49.484;8.556;2023-05-27T13:05:52;0.00;;;0.00;;
18897;SDS011;9581;49.484;8.556;2023-05-27T13:08:19;0.00;;;0.00;;
18897;SDS011;9581;49.484;8.556;2023-05-27T13:10:47;0.10;;;0.10;;
18897;SDS011;9581;49.484;8.556;2023-05-27T13:13:14;0.00;;;0.00;;
18897;SDS011;9581;49.484;8.556;2023-05-27T13:15:41;0.00;;;0.00;;
18897;SDS011;9581;49.484;8.556;2023-05-27T13:18:07;0.10;;;0.10;;
18897;SDS011;9581;49.484;8.556;2023-05-27T13:20:35;0.00;;;0.00;;
18897;SDS011;9581;49.484;8.556;2023-05-27T13:23:02;0.00;;;0.00;;
18897;SDS011;9581;49.484;8.556;2023-05-27T13:25:29;0.10;;;0.10;;
18897;SDS011;9581;49.484;8.556;2023-05-27T13:27:58;0.00;;;0.00;;
18897;SDS011;9581;49.484;8.556;2023-05-27T13:30:25;0.00;;;0.00;;
18897;SDS011;9581;49.484;8.556;2023-05-27T13:32:53;0.10;;;0.10;;
18897;SDS011;9581;49.484;8.556;2023-05-27T13:35:21;0.00;;;0.00;;
18897;SDS011;9581;49.484;8.556;2023-05-27T13:37:48;0.00;;;0.00;;
18897;SDS011;9581;49.484;8.556;2023-05-27T13:40:15;0.10;;;0.10;;
18897;SDS011;9581;49.484;8.556;2023-05-27T13:42:43;0.10;;;0.10;;
18897;SDS011;9581;49.484;8.556;2023-05-27T13:45:11;0.00;;;0.00;;
18897;SDS011;9581;49.484;8.556;2023-05-27T13:47:38;0.00;;;0.00;;
18897;SDS011;9581;49.484;8.556;2023-05-27T13:50:08;0.00;;;0.00;;
18897;SDS011;9581;49.484;8.556;2023-05-27T13:52:35;0.10;;;0.10;;
18897;SDS011;9581;49.484;8.556;2023-05-27T13:55:02;0.00;;;0.00;;
18897;SDS011;9581;49.484;8.556;2023-05-27T13:57:29;0.00;;;0.00;;
18897;SDS011;9581;49.484;8.556;2023-05-27T13:59:56;0.00;;;0.00;;
18897;SDS011;9581;49.484;8.556;2023-05-27T14:02:24;0.00;;;0.00;;
18897;SDS011;9581;49.484;8.556;2023-05-27T14:04:51;0.10;;;0.10;;
18897;SDS011;9581;49.484;8.556;2023-05-27T14:07:18;0.00;;;0.00;;
18897;SDS011;9581;49.484;8.556;2023-05-27T14:09:45;0.00;;;0.00;;
18897;SDS011;9581;49.484;8.556;2023-05-27T14:12:12;0.03;;;0.03;;
18897;SDS011;9581;49.484;8.556;2023-05-27T14:14:39;0.00;;;0.00;;
18897;SDS011;9581;49.484;8.556;2023-05-27T14:17:06;0.00;;;0.00;;
18897;SDS011;9581;49.484;8.556;2023-05-27T14:19:34;0.00;;;0.00;;
18897;SDS011;9581;49.484;8.556;2023-05-27T14:22:01;0.00;;;0.00;;
18897;SDS011;9581;49.484;8.556;2023-05-27T14:24:28;0.00;;;0.00;;
18897;SDS011;9581;49.484;8.556;2023-05-27T14:26:56;0.00;;;0.00;;
18897;SDS011;9581;49.484;8.556;2023-05-27T14:29:23;0.00;;;0.00;;
18897;SDS011;9581;49.484;8.556;2023-05-27T14:31:50;0.00;;;0.00;;
18897;SDS011;9581;49.484;8.556;2023-05-27T14:34:17;0.00;;;0.00;;
18897;SDS011;9581;49.484;8.556;2023-05-27T14:36:45;0.10;;;0.10;;
18897;SDS011;9581;49.484;8.556;2023-05-27T14:39:12;0.00;;;0.00;;
18897;SDS011;9581;49.484;8.556;2023-05-27T14:41:38;0.00;;;0.00;;
18897;SDS011;9581;49.484;8.556;2023-05-27T14:44:05;0.00;;;0.00;;
18897;SDS011;9581;49.484;8.556;2023-05-27T14:46:32;0.00;;;0.00;;
18897;SDS011;9581;49.484;8.556;2023-05-27T14:48:59;0.00;;;0.00;;
18897;SDS011;9581;49.484;8.556;2023-05-27T14:51:26;0.00;;;0.00;;
18897;SDS011;9581;49.484;8.556;2023-05-27T14:53:54;0.00;;;0.00;;
18897;SDS011;9581;49.484;8.556;2023-05-27T14:56:21;0.00;;;0.00;;
18897;SDS011;9581;49.484;8.556;2023-05-27T14:58:47;0.00;;;0.00;;
18897;SDS011;9581;49.484;8.556;2023-05-27T15:01:15;0.00;;;0.00;;
18897;SDS011;9581;49.484;8.556;2023-05-27T15:03:42;0.00;;;0.00;;